Time;durP1;ratioP1;P1;durP2;ratioP2;P2;SDS_P1;SDS_P2;PMS_P1;PMS_P2;Temp;Humidity;BMP_temperature;BMP_pressure;BME280_temperature;BME280_humidity;BME280_pressure;Samples;Min_cycle;Max_cycle;Signal;HPM_P1;HPM_P2
2023/01/11 00:00:04;;;;;;;6.57;2.40;;;5.50;99.90;;;;;;5035478;28;20203;-73
2023/01/11 00:02:31;;;;;;;10.77;3.00;;;5.50;99.90;;;;;;5036028;28;20210;-70
2023/01/11 00:04:56;;;;;;;6.57;3.10;;;5.40;99.90;;;;;;5035629;28;20203;-72
2023/01/11 00:07:22;;;;;;;6.50;3.63;;;5.40;99.90;;;;;;5034749;28;20698;-73
2023/01/11 00:09:48;;;;;;;6.57;2.67;;;5.40;99.90;;;;;;5033742;28;20294;-72
2023/01/11 00:12:13;;;;;;;4.47;2.10;;;5.40;99.90;;;;;;5034196;28;20281;-72
2023/01/11 00:14:39;;;;;;;8.37;3.10;;;5.40;99.90;;;;;;5011854;28;20682;-72
2023/01/11 00:17:05;;;;;;;6.30;2.13;;;5.50;99.90;;;;;;5010839;28;20736;-72
2023/01/11 00:19:30;;;;;;;12.47;2.90;;;5.50;99.90;;;;;;5009117;28;20199;-71
2023/01/11 00:21:55;;;;;;;5.17;2.60;;;5.40;99.90;;;;;;5007437;28;20213;-72
2023/01/11 00:24:21;;;;;;;15.90;6.30;;;5.50;99.90;;;;;;5010494;28;20739;-74
2023/01/11 00:26:46;;;;;;;7.20;2.63;;;5.50;99.90;;;;;;5014374;28;20563;-72
2023/01/11 00:29:12;;;;;;;7.70;3.77;;;5.40;99.90;;;;;;5009652;28;20207;-72
2023/01/11 00:31:37;;;;;;;5.13;2.67;;;5.40;99.90;;;;;;5007561;28;20222;-72
2023/01/11 00:34:03;;;;;;;8.37;3.40;;;5.40;99.90;;;;;;5003911;28;20225;-71
2023/01/11 00:36:28;;;;;;;7.17;3.50;;;5.40;99.90;;;;;;5005500;28;20271;-68
2023/01/11 00:38:54;;;;;;;5.23;2.57;;;5.40;99.90;;;;;;5011033;28;20200;-72
2023/01/11 00:49:36;;;;;;;5.93;2.67;;;5.30;99.90;;;;;;5013478;28;20248;-74
2023/01/11 00:52:04;;;;;;;3.43;2.63;;;5.30;99.90;;;;;;5014805;28;20230;-74
2023/01/11 00:54:29;;;;;;;9.67;2.47;;;5.30;99.90;;;;;;5011911;28;20203;-73
2023/01/11 00:56:55;;;;;;;9.10;2.80;;;5.40;99.90;;;;;;5033163;28;20823;-73
2023/01/11 00:59:20;;;;;;;10.17;2.77;;;5.40;99.90;;;;;;5029640;28;20199;-73
2023/01/11 01:01:46;;;;;;;5.83;2.70;;;5.40;99.90;;;;;;5038800;28;20500;-72
2023/01/11 01:04:11;;;;;;;7.83;2.83;;;5.40;99.90;;;;;;5037893;28;20210;-72
2023/01/11 01:06:37;;;;;;;5.37;2.80;;;5.30;99.90;;;;;;5038041;28;20210;-68
2023/01/11 01:09:02;;;;;;;2.80;1.90;;;5.30;99.90;;;;;;5033335;28;20566;-66
2023/01/11 01:11:28;;;;;;;5.93;2.00;;;5.40;99.90;;;;;;5014278;28;20258;-68
2023/01/11 01:16:37;;;;;;;10.13;3.97;;;5.40;99.90;;;;;;5011104;28;20214;-67
2023/01/11 01:19:03;;;;;;;9.47;2.53;;;5.40;99.90;;;;;;5011169;28;20203;-68
2023/01/11 01:21:29;;;;;;;5.87;2.27;;;5.30;99.90;;;;;;5011428;28;20734;-67
2023/01/11 01:23:54;;;;;;;7.87;2.93;;;5.30;99.90;;;;;;5010257;28;20191;-69
2023/01/11 01:26:20;;;;;;;4.57;2.93;;;5.30;99.90;;;;;;5010427;28;20387;-70
2023/01/11 01:28:46;;;;;;;8.80;3.07;;;5.20;99.90;;;;;;5009608;28;20199;-66
2023/01/11 01:31:12;;;;;;;12.87;2.50;;;5.20;99.90;;;;;;5011876;28;20671;-68
2023/01/11 01:33:37;;;;;;;3.73;2.40;;;5.20;99.90;;;;;;5012020;28;20541;-69
2023/01/11 01:36:04;;;;;;;8.73;3.10;;;5.20;99.90;;;;;;5029621;28;20230;-68
2023/01/11 01:38:29;;;;;;;6.00;2.83;;;5.20;99.90;;;;;;5036239;28;20202;-66
2023/01/11 01:40:55;;;;;;;4.63;2.20;;;5.20;99.90;;;;;;5037019;28;20199;-71
2023/01/11 01:43:23;;;;;;;7.20;2.10;;;5.20;99.90;;;;;;5035407;28;20233;-68
2023/01/11 01:45:51;;;;;;;3.50;2.13;;;5.30;99.90;;;;;;5037248;28;20750;-71
2023/01/11 01:48:24;;;;;;;4.27;2.53;;;5.30;99.90;;;;;;5037022;28;20224;-70
2023/01/11 01:50:54;;;;;;;6.17;2.07;;;5.40;99.90;;;;;;5037031;28;20620;-70
2023/01/11 01:53:36;;;;;;;5.17;2.00;;;5.40;99.90;;;;;;5036970;28;20299;-71
2023/01/11 01:56:07;;;;;;;8.90;2.77;;;5.40;99.90;;;;;;5035559;28;20241;-71
2023/01/11 01:58:40;;;;;;;5.63;3.10;;;5.50;99.90;;;;;;5035114;28;20268;-70
2023/01/11 02:03:51;;;;;;;6.70;3.53;;;5.50;99.90;;;;;;5037007;28;20722;-70
2023/01/11 02:06:21;;;;;;;5.90;2.30;;;5.50;99.90;;;;;;5036702;28;20325;-70
2023/01/11 02:08:54;;;;;;;6.93;2.87;;;5.50;99.90;;;;;;5037069;28;20211;-68
2023/01/11 02:11:30;;;;;;;10.03;3.03;;;5.50;99.90;;;;;;5035755;28;20226;-67
2023/01/11 02:13:59;;;;;;;4.80;2.13;;;5.50;99.90;;;;;;5036556;28;20217;-68
2023/01/11 02:16:25;;;;;;;5.77;2.17;;;5.60;99.90;;;;;;5036622;28;20289;-67
2023/01/11 02:18:51;;;;;;;5.63;2.00;;;5.60;99.90;;;;;;5029394;28;20365;-67
2023/01/11 02:21:24;;;;;;;6.27;2.67;;;5.60;99.90;;;;;;5036958;28;20203;-67
2023/01/11 02:24:08;;;;;;;8.43;2.47;;;5.60;99.90;;;;;;5031952;28;20610;-67
2023/01/11 02:27:04;;;;;;;4.93;2.23;;;5.70;99.90;;;;;;5036382;28;20272;-67
2023/01/11 02:29:42;;;;;;;7.03;2.60;;;5.70;99.90;;;;;;5034737;28;20214;-67
2023/01/11 02:32:31;;;;;;;4.50;1.70;;;5.70;99.90;;;;;;5036233;28;20199;-68
2023/01/11 02:35:10;;;;;;;5.23;2.07;;;5.70;99.90;;;;;;5036551;28;20206;-68
2023/01/11 02:38:04;;;;;;;2.83;2.40;;;5.70;99.90;;;;;;5036266;28;20782;-67
2023/01/11 02:40:51;;;;;;;3.57;2.43;;;5.70;99.90;;;;;;5035223;28;20242;-67
2023/01/11 02:46:38;;;;;;;3.77;2.00;;;5.80;99.90;;;;;;5029484;28;20422;-71
2023/01/11 02:49:32;;;;;;;4.97;2.07;;;5.70;99.90;;;;;;5036099;28;20263;-73
2023/01/11 02:52:07;;;;;;;6.63;2.83;;;5.70;99.90;;;;;;5035891;28;20190;-66
2023/01/11 02:54:34;;;;;;;4.47;2.53;;;5.70;99.90;;;;;;5035749;28;20198;-66
2023/01/11 02:57:01;;;;;;;8.30;2.40;;;5.70;99.90;;;;;;5035441;28;20241;-65
2023/01/11 02:59:30;;;;;;;4.97;2.07;;;5.80;99.90;;;;;;5036050;28;20286;-66
2023/01/11 03:01:56;;;;;;;8.20;2.37;;;5.80;99.90;;;;;;5034050;28;20632;-65
2023/01/11 03:04:23;;;;;;;3.63;1.70;;;5.80;99.90;;;;;;5031101;28;20510;-66
2023/01/11 03:06:53;;;;;;;7.30;1.80;;;5.80;99.90;;;;;;5030871;28;20249;-66
2023/01/11 03:09:37;;;;;;;3.93;1.70;;;5.90;99.90;;;;;;5035384;28;20214;-66
2023/01/11 03:15:17;;;;;;;2.63;1.77;;;5.90;99.90;;;;;;5031023;28;20765;-67
2023/01/11 03:18:01;;;;;;;3.50;1.97;;;5.90;99.90;;;;;;5035618;28;20511;-66
2023/01/11 03:20:32;;;;;;;6.17;2.13;;;6.00;99.90;;;;;;5035378;28;20246;-66
2023/01/11 03:23:05;;;;;;;5.23;2.33;;;5.90;99.90;;;;;;5022399;28;20207;-66
2023/01/11 03:25:56;;;;;;;4.67;1.70;;;5.90;99.90;;;;;;5035673;28;20203;-66
2023/01/11 03:28:40;;;;;;;6.93;2.17;;;5.90;99.90;;;;;;5035063;28;20211;-66
2023/01/11 03:31:21;;;;;;;5.83;1.53;;;5.90;99.90;;;;;;5031458;28;20216;-66
2023/01/11 03:34:08;;;;;;;7.57;2.67;;;5.90;99.90;;;;;;5022235;28;20249;-66
2023/01/11 03:36:37;;;;;;;4.40;1.73;;;6.00;99.90;;;;;;5019874;28;21161;-67
2023/01/11 03:39:39;;;;;;;4.33;1.73;;;6.00;99.90;;;;;;5025850;28;20236;-67
2023/01/11 03:42:08;;;;;;;4.30;1.80;;;6.00;99.90;;;;;;5015700;28;20608;-66
2023/01/11 03:44:41;;;;;;;3.70;2.57;;;6.00;99.90;;;;;;5025687;28;20203;-66
2023/01/11 03:47:10;;;;;;;2.73;1.70;;;6.00;99.90;;;;;;5025515;28;20225;-67
2023/01/11 03:49:52;;;;;;;4.97;1.80;;;6.00;99.90;;;;;;5023174;28;20199;-66
2023/01/11 03:52:24;;;;;;;3.53;1.93;;;6.10;99.90;;;;;;5024763;28;20199;-67
2023/01/11 03:54:51;;;;;;;2.93;1.87;;;6.10;99.90;;;;;;5022949;28;20199;-67
2023/01/11 03:57:35;;;;;;;4.03;1.87;;;6.10;99.90;;;;;;5025602;28;20261;-68
2023/01/11 04:00:01;;;;;;;3.63;1.80;;;6.10;99.90;;;;;;5024356;28;20229;-67
2023/01/11 04:02:33;;;;;;;4.13;2.00;;;6.10;99.90;;;;;;5024893;28;20241;-67
2023/01/11 04:04:59;;;;;;;2.53;1.40;;;6.10;99.90;;;;;;5024868;28;20741;-66
2023/01/11 04:07:24;;;;;;;4.33;2.00;;;6.10;99.90;;;;;;5024871;28;20211;-67
2023/01/11 04:09:50;;;;;;;3.97;2.20;;;6.10;99.90;;;;;;5028693;28;20218;-67
2023/01/11 04:12:15;;;;;;;5.83;3.17;;;6.10;99.90;;;;;;5019429;28;20668;-67
2023/01/11 04:14:41;;;;;;;4.60;2.10;;;6.10;99.90;;;;;;5029081;28;20440;-67
2023/01/11 04:17:07;;;;;;;4.00;1.70;;;6.10;99.90;;;;;;5021911;28;20254;-67
2023/01/11 04:19:32;;;;;;;2.47;1.87;;;6.20;99.90;;;;;;5028248;28;20251;-67
2023/01/11 04:21:57;;;;;;;7.67;3.80;;;6.20;99.90;;;;;;5029367;28;20211;-68
2023/01/11 04:24:23;;;;;;;9.53;8.60;;;6.20;99.90;;;;;;5029213;28;20191;-66
2023/01/11 04:26:48;;;;;;;4.20;2.13;;;6.20;99.90;;;;;;5034083;28;20881;-67
2023/01/11 04:29:14;;;;;;;3.27;1.57;;;6.30;99.90;;;;;;5037194;28;20206;-66
2023/01/11 04:31:39;;;;;;;2.60;1.47;;;6.30;99.90;;;;;;5038253;28;20286;-67
2023/01/11 04:34:05;;;;;;;7.63;2.90;;;6.30;99.90;;;;;;5038642;28;20195;-70
2023/01/11 04:36:32;;;;;;;4.63;1.60;;;6.30;99.90;;;;;;5038559;28;20347;-66
2023/01/11 04:38:58;;;;;;;5.40;1.67;;;6.30;99.90;;;;;;5036517;28;20206;-68
2023/01/11 04:44:07;;;;;;;3.40;1.40;;;6.30;99.90;;;;;;5038676;28;20210;-66
2023/01/11 04:46:33;;;;;;;3.03;1.93;;;6.30;99.90;;;;;;5035793;28;20218;-66
2023/01/11 04:48:58;;;;;;;3.40;1.70;;;6.30;99.90;;;;;;5037637;28;20195;-66
2023/01/11 04:51:24;;;;;;;1.97;1.33;;;6.40;99.90;;;;;;5038277;28;20226;-67
2023/01/11 04:53:50;;;;;;;1.60;1.50;;;6.40;99.90;;;;;;5033715;28;20759;-66
2023/01/11 04:56:16;;;;;;;5.90;2.23;;;6.40;99.90;;;;;;5033264;28;20329;-67
2023/01/11 04:58:42;;;;;;;2.30;1.33;;;6.40;99.90;;;;;;5037866;28;20218;-67
2023/01/11 05:01:14;;;;;;;5.30;3.30;;;6.40;99.90;;;;;;5036090;28;20264;-67
2023/01/11 05:03:39;;;;;;;5.13;1.67;;;6.50;99.90;;;;;;5037556;28;20210;-68
2023/01/11 05:06:06;;;;;;;5.77;2.40;;;6.50;99.90;;;;;;5037919;28;20228;-67
2023/01/11 05:08:31;;;;;;;4.17;1.50;;;6.50;99.90;;;;;;5037171;28;20234;-66
2023/01/11 05:11:00;;;;;;;2.20;2.00;;;6.60;99.90;;;;;;5035708;28;20226;-67
2023/01/11 05:13:40;;;;;;;3.60;2.17;;;6.60;99.90;;;;;;5032994;28;20210;-67
2023/01/11 05:16:26;;;;;;;2.87;1.80;;;6.60;99.90;;;;;;5035417;28;20203;-67
2023/01/11 05:18:57;;;;;;;3.90;1.47;;;6.60;99.90;;;;;;5037580;28;20848;-67
2023/01/11 05:21:30;;;;;;;2.97;2.33;;;6.60;99.90;;;;;;5034807;28;20219;-67
2023/01/11 05:23:56;;;;;;;2.83;1.43;;;6.60;99.90;;;;;;5038014;28;20222;-67
2023/01/11 05:26:26;;;;;;;3.97;1.70;;;6.60;99.90;;;;;;5037603;28;20502;-66
2023/01/11 05:28:55;;;;;;;4.57;2.37;;;6.70;99.90;;;;;;5036126;28;21016;-67
2023/01/11 05:31:21;;;;;;;2.67;1.73;;;6.70;99.90;;;;;;5037119;28;20780;-68
2023/01/11 05:33:47;;;;;;;2.97;1.90;;;6.70;99.90;;;;;;5036114;28;20692;-67
2023/01/11 05:36:18;;;;;;;6.30;2.30;;;6.70;99.90;;;;;;5037537;28;20207;-68
2023/01/11 05:38:48;;;;;;;4.73;1.90;;;6.70;99.90;;;;;;5037476;28;20199;-67
2023/01/11 05:41:14;;;;;;;2.33;1.80;;;6.70;99.90;;;;;;5037114;28;20218;-66
2023/01/11 05:46:26;;;;;;;3.87;1.97;;;6.70;99.90;;;;;;5037265;28;20275;-66
2023/01/11 05:48:54;;;;;;;3.80;1.53;;;6.70;99.90;;;;;;5037358;28;20211;-67
2023/01/11 05:51:19;;;;;;;4.47;1.80;;;6.70;99.90;;;;;;5037133;28;20206;-66
2023/01/11 05:53:45;;;;;;;4.03;1.87;;;6.70;99.90;;;;;;5035585;28;20221;-67
2023/01/11 05:56:10;;;;;;;5.60;1.40;;;6.70;99.90;;;;;;5030044;28;20237;-68
2023/01/11 05:58:36;;;;;;;3.73;1.63;;;6.70;99.90;;;;;;5036877;28;20285;-68
2023/01/11 06:01:02;;;;;;;4.67;1.70;;;6.60;99.90;;;;;;5036564;28;20268;-68
2023/01/11 06:03:27;;;;;;;2.17;1.63;;;6.60;99.90;;;;;;5037058;28;20202;-67
2023/01/11 06:05:53;;;;;;;1.53;1.40;;;6.60;99.90;;;;;;5036675;28;20221;-68
2023/01/11 06:08:19;;;;;;;2.83;1.50;;;6.50;99.90;;;;;;5036332;28;20205;-68
2023/01/11 06:10:52;;;;;;;4.30;2.13;;;6.50;99.90;;;;;;5034353;28;20665;-67
2023/01/11 06:13:27;;;;;;;4.73;2.60;;;6.50;99.90;;;;;;5036575;28;20798;-67
2023/01/11 06:16:08;;;;;;;2.10;1.67;;;6.50;99.90;;;;;;5031843;28;20526;-66
2023/01/11 06:18:36;;;;;;;2.27;1.37;;;6.50;99.90;;;;;;5036614;28;20199;-65
2023/01/11 06:21:03;;;;;;;2.10;1.20;;;6.50;99.90;;;;;;5035222;28;20214;-67
2023/01/11 06:23:30;;;;;;;6.53;1.83;;;6.50;99.90;;;;;;5030473;28;20719;-66
2023/01/11 06:25:55;;;;;;;5.23;2.10;;;6.50;99.90;;;;;;5036035;28;20620;-65
2023/01/11 06:28:21;;;;;;;5.87;1.80;;;6.50;99.90;;;;;;5026787;28;20203;-66
2023/01/11 06:30:55;;;;;;;3.23;1.80;;;6.50;99.90;;;;;;5009012;28;20231;-68
2023/01/11 06:33:21;;;;;;;3.50;1.93;;;6.50;99.90;;;;;;5007069;28;20675;-68
2023/01/11 06:35:46;;;;;;;4.43;2.40;;;6.50;99.90;;;;;;5009691;28;20208;-67
2023/01/11 06:38:14;;;;;;;2.70;1.80;;;6.50;99.90;;;;;;5009419;28;20704;-67
2023/01/11 06:40:40;;;;;;;3.33;2.47;;;6.50;99.90;;;;;;5008865;28;20272;-67
2023/01/11 06:43:07;;;;;;;4.30;2.17;;;6.50;99.90;;;;;;5013246;28;20223;-67
2023/01/11 06:45:33;;;;;;;4.43;1.83;;;6.50;99.90;;;;;;5011473;28;20207;-67
2023/01/11 06:47:59;;;;;;;3.97;1.50;;;6.50;99.90;;;;;;5005698;28;20267;-67
2023/01/11 06:50:24;;;;;;;7.40;1.87;;;6.50;99.90;;;;;;5013566;28;21122;-66
2023/01/11 06:52:54;;;;;;;4.93;1.30;;;6.50;99.90;;;;;;5005273;28;20198;-67
2023/01/11 06:55:20;;;;;;;6.67;1.50;;;6.50;99.90;;;;;;5002496;28;20204;-67
2023/01/11 06:57:46;;;;;;;4.63;1.50;;;6.50;99.90;;;;;;5010620;28;20208;-68
2023/01/11 07:00:12;;;;;;;3.53;1.60;;;6.50;99.90;;;;;;5011210;28;20246;-67
2023/01/11 07:02:37;;;;;;;3.83;2.13;;;6.50;99.90;;;;;;5007928;28;20222;-67
2023/01/11 07:05:03;;;;;;;2.50;1.50;;;6.50;99.90;;;;;;5007232;28;20222;-67
2023/01/11 07:07:29;;;;;;;1.53;1.43;;;6.50;99.90;;;;;;5006767;28;20211;-66
2023/01/11 07:09:54;;;;;;;4.43;1.77;;;6.50;99.90;;;;;;5010470;28;20195;-66
2023/01/11 07:12:20;;;;;;;3.17;2.07;;;6.50;99.90;;;;;;5007570;28;20254;-69
2023/01/11 07:14:45;;;;;;;3.60;1.80;;;6.50;99.90;;;;;;5010283;28;20211;-68
2023/01/11 07:17:11;;;;;;;3.07;1.93;;;6.50;99.90;;;;;;5014348;28;20325;-68
2023/01/11 07:19:36;;;;;;;2.73;2.27;;;6.50;99.90;;;;;;5004059;28;20632;-67
2023/01/11 07:22:02;;;;;;;2.30;1.50;;;6.50;99.90;;;;;;5008229;28;20265;-67
2023/01/11 07:24:27;;;;;;;2.47;1.23;;;6.60;99.90;;;;;;5010060;28;20283;-68
2023/01/11 07:26:55;;;;;;;4.57;1.60;;;6.60;99.90;;;;;;5010236;28;20555;-69
2023/01/11 07:29:20;;;;;;;2.47;1.37;;;6.60;99.90;;;;;;5010233;28;20203;-66
2023/01/11 07:31:46;;;;;;;5.70;1.60;;;6.70;99.90;;;;;;5009873;28;20233;-67
2023/01/11 07:34:12;;;;;;;2.87;1.90;;;6.70;99.90;;;;;;5010448;28;20285;-67
2023/01/11 07:36:38;;;;;;;2.30;1.37;;;6.80;99.90;;;;;;5007387;28;20339;-66
2023/01/11 07:39:05;;;;;;;2.80;1.43;;;6.80;99.90;;;;;;5009296;28;20210;-65
2023/01/11 07:44:15;;;;;;;4.73;2.23;;;6.90;99.90;;;;;;5006455;28;20729;-67
2023/01/11 07:46:40;;;;;;;4.40;2.10;;;7.00;99.90;;;;;;5008005;28;20212;-66
2023/01/11 07:49:06;;;;;;;4.03;1.60;;;7.00;99.90;;;;;;5007947;28;20194;-67
2023/01/11 07:51:31;;;;;;;3.60;1.63;;;7.00;99.90;;;;;;5006436;28;20297;-67
2023/01/11 07:54:01;;;;;;;2.13;1.90;;;7.10;99.90;;;;;;5009506;28;20203;-67
2023/01/11 07:56:27;;;;;;;3.17;1.63;;;7.10;99.90;;;;;;5012149;28;20203;-66
2023/01/11 07:58:52;;;;;;;3.47;1.67;;;7.20;99.90;;;;;;5012159;28;20776;-67
2023/01/11 08:01:18;;;;;;;3.50;1.80;;;7.20;99.90;;;;;;5014626;28;20219;-68
2023/01/11 08:03:43;;;;;;;4.00;2.07;;;7.20;99.90;;;;;;5017808;28;20202;-69
2023/01/11 08:06:08;;;;;;;7.13;2.07;;;7.30;99.90;;;;;;5013532;28;20229;-68
2023/01/11 08:08:34;;;;;;;2.53;1.70;;;7.30;99.90;;;;;;5016197;28;20202;-67
2023/01/11 08:16:28;;;;;;;3.13;2.03;;;7.30;99.90;;;;;;5012036;28;20215;-66
2023/01/11 08:18:53;;;;;;;2.17;1.80;;;7.40;99.90;;;;;;5011498;28;20187;-68
2023/01/11 08:21:20;;;;;;;2.03;1.30;;;7.40;99.90;;;;;;5011261;28;20375;-68
2023/01/11 08:23:46;;;;;;;3.77;1.80;;;7.40;99.90;;;;;;5009873;28;20204;-68
2023/01/11 08:26:15;;;;;;;2.50;2.03;;;7.50;99.90;;;;;;5012768;28;20219;-68
2023/01/11 08:28:41;;;;;;;2.40;1.47;;;7.50;99.90;;;;;;5013979;28;20293;-68
2023/01/11 08:31:07;;;;;;;2.40;1.70;;;7.50;99.90;;;;;;5012449;28;20595;-67
2023/01/11 08:33:33;;;;;;;3.57;1.67;;;7.50;99.90;;;;;;5012705;28;20203;-67
2023/01/11 08:36:04;;;;;;;2.50;1.50;;;7.50;99.90;;;;;;5011065;28;20489;-67
2023/01/11 08:38:29;;;;;;;3.37;1.70;;;7.60;99.90;;;;;;5011922;28;20211;-65
2023/01/11 08:40:55;;;;;;;4.67;1.73;;;7.60;99.90;;;;;;5012245;28;20221;-66
2023/01/11 08:43:20;;;;;;;3.03;1.77;;;7.60;99.90;;;;;;5016748;28;20298;-67
2023/01/11 08:45:45;;;;;;;3.93;1.50;;;7.60;99.90;;;;;;5012833;28;20696;-67
2023/01/11 08:48:11;;;;;;;3.07;1.50;;;7.70;99.90;;;;;;5010869;28;20223;-66
2023/01/11 08:50:37;;;;;;;1.30;1.20;;;7.70;99.90;;;;;;5011588;28;20342;-67
2023/01/11 08:53:02;;;;;;;4.57;1.97;;;7.60;99.90;;;;;;5010404;28;20211;-67
2023/01/11 08:55:29;;;;;;;3.30;1.90;;;7.60;99.90;;;;;;5017798;28;20183;-67
2023/01/11 08:57:56;;;;;;;4.33;1.40;;;7.50;99.90;;;;;;5011756;28;20207;-67
2023/01/11 09:00:22;;;;;;;1.70;1.60;;;7.40;99.90;;;;;;5009141;28;20254;-66
2023/01/11 09:02:47;;;;;;;5.00;2.00;;;7.40;99.90;;;;;;5011413;28;20244;-67
2023/01/11 09:05:13;;;;;;;5.17;1.63;;;7.40;99.90;;;;;;5010913;28;20199;-66
2023/01/11 09:07:38;;;;;;;3.47;1.37;;;7.40;99.90;;;;;;5010660;28;20216;-67
2023/01/11 09:10:04;;;;;;;1.63;1.40;;;7.40;99.90;;;;;;5009594;28;20203;-67
2023/01/11 09:12:31;;;;;;;4.57;1.50;;;7.40;99.90;;;;;;5008195;28;20964;-63
2023/01/11 09:14:57;;;;;;;4.13;1.90;;;7.40;99.90;;;;;;5022870;28;20199;-66
2023/01/11 09:17:23;;;;;;;3.87;1.80;;;7.30;99.90;;;;;;5032229;28;20260;-66
2023/01/11 09:19:48;;;;;;;2.13;1.93;;;7.10;99.90;;;;;;5037370;28;20202;-67
2023/01/11 09:22:14;;;;;;;3.63;1.60;;;7.00;99.90;;;;;;5027528;28;20210;-66
2023/01/11 09:24:39;;;;;;;6.17;1.63;;;6.90;99.90;;;;;;5033496;28;20206;-65
2023/01/11 09:27:05;;;;;;;2.60;1.60;;;6.80;99.90;;;;;;5022735;28;20681;-67
2023/01/11 09:29:31;;;;;;;4.37;1.90;;;6.70;99.90;;;;;;5024653;28;20230;-67
2023/01/11 09:31:56;;;;;;;3.83;2.10;;;6.70;99.90;;;;;;5035162;28;20191;-65
2023/01/11 09:34:24;;;;;;;5.30;2.27;;;6.70;99.90;;;;;;5033614;28;20233;-68
2023/01/11 09:36:49;;;;;;;2.30;2.03;;;6.70;99.90;;;;;;5032092;28;20198;-67
2023/01/11 09:39:19;;;;;;;3.10;2.30;;;6.70;99.90;;;;;;5037071;28;20634;-67
2023/01/11 09:42:07;;;;;;;2.83;1.80;;;6.70;99.90;;;;;;5024368;28;20226;-65
2023/01/11 09:44:48;;;;;;;4.33;2.23;;;6.70;99.90;;;;;;5025652;28;20208;-73
2023/01/11 09:47:24;;;;;;;4.53;2.43;;;6.80;99.90;;;;;;5027910;28;20214;-74
2023/01/11 09:49:55;;;;;;;1.97;1.70;;;6.80;99.90;;;;;;5026534;28;20191;-74
2023/01/11 09:52:35;;;;;;;4.07;2.57;;;6.80;99.90;;;;;;5029321;28;20203;-74
2023/01/11 09:55:01;;;;;;;4.97;2.57;;;6.80;99.90;;;;;;5025977;28;20360;-73
2023/01/11 09:57:40;;;;;;;2.37;2.13;;;6.80;99.90;;;;;;5024516;28;20219;-73
2023/01/11 10:00:34;;;;;;;3.53;1.80;;;6.90;99.90;;;;;;5027991;28;20207;-71
2023/01/11 10:03:28;;;;;;;2.57;1.97;;;6.90;99.90;;;;;;5023833;28;20302;-58
2023/01/11 10:06:44;;;;;;;6.47;3.63;;;7.20;99.90;;;;;;5024448;28;20217;-58
2023/01/11 10:09:35;;;;;;;7.87;2.70;;;7.60;99.90;;;;;;4992794;28;20275;-59
2023/01/11 10:12:06;;;;;;;7.93;4.87;;;7.90;99.90;;;;;;5018383;28;20211;-59
2023/01/11 10:14:56;;;;;;;11.10;5.83;;;8.10;99.90;;;;;;5018591;28;20314;-57
2023/01/11 10:18:05;;;;;;;13.23;3.70;;;8.20;99.90;;;;;;5019783;28;20618;-57
2023/01/11 10:20:42;;;;;;;4.17;2.67;;;8.30;99.90;;;;;;5013948;28;20713;-58
2023/01/11 10:23:23;;;;;;;7.13;3.93;;;8.30;99.90;;;;;;5026937;28;20202;-57
2023/01/11 10:25:53;;;;;;;5.57;3.10;;;8.40;99.90;;;;;;5018624;28;20693;-57
2023/01/11 10:28:33;;;;;;;8.17;4.27;;;8.40;99.90;;;;;;5015052;28;20332;-58
2023/01/11 10:31:09;;;;;;;10.53;4.17;;;8.40;99.90;;;;;;5014491;28;20230;-56
2023/01/11 10:34:09;;;;;;;2.73;2.13;;;8.40;99.90;;;;;;5028736;28;20211;-57
2023/01/11 10:40:18;;;;;;;3.17;2.83;;;8.50;99.90;;;;;;5022847;28;20210;-58
2023/01/11 10:43:02;;;;;;;5.10;2.27;;;8.50;99.90;;;;;;5006420;28;20223;-58
2023/01/11 10:45:43;;;;;;;2.47;2.27;;;8.60;99.90;;;;;;5008690;28;20232;-58
2023/01/11 10:48:17;;;;;;;4.90;3.30;;;8.60;99.90;;;;;;5009726;28;20394;-58
2023/01/11 10:50:56;;;;;;;3.83;2.63;;;8.70;99.90;;;;;;5036096;28;20714;-57
2023/01/11 10:53:39;;;;;;;3.83;2.53;;;8.70;99.90;;;;;;5035770;28;20276;-58
2023/01/11 10:56:19;;;;;;;6.27;4.10;;;8.80;99.90;;;;;;5029090;28;20192;-59
2023/01/11 10:58:52;;;;;;;4.27;2.80;;;8.70;99.90;;;;;;5013249;28;20227;-57
2023/01/11 11:01:37;;;;;;;5.57;2.63;;;8.80;99.90;;;;;;5029080;28;20202;-59
2023/01/11 11:04:30;;;;;;;4.67;2.97;;;8.90;99.90;;;;;;5035839;28;20561;-58
2023/01/11 11:07:17;;;;;;;3.87;3.57;;;8.90;99.90;;;;;;5031081;28;20211;-59
2023/01/11 11:09:56;;;;;;;3.87;3.10;;;8.90;99.90;;;;;;5027849;28;20787;-58
2023/01/11 11:12:36;;;;;;;3.33;2.20;;;9.00;99.90;;;;;;5007299;28;20207;-58
2023/01/11 11:15:22;;;;;;;2.83;2.53;;;9.00;99.90;;;;;;5003047;28;20444;-57
2023/01/11 11:17:52;;;;;;;2.87;2.03;;;9.00;99.90;;;;;;5008707;28;20199;-57
2023/01/11 11:20:29;;;;;;;3.43;2.20;;;8.90;99.90;;;;;;5008853;28;20203;-57
2023/01/11 11:22:57;;;;;;;4.33;3.00;;;8.80;99.90;;;;;;5009875;28;20253;-57
2023/01/11 11:25:32;;;;;;;2.57;1.70;;;8.80;99.90;;;;;;5021267;28;20214;-57
2023/01/11 11:28:04;;;;;;;1.80;1.67;;;8.80;99.90;;;;;;5035396;28;20210;-68
2023/01/11 11:30:37;;;;;;;3.20;2.10;;;8.80;99.90;;;;;;5027631;28;20290;-75
2023/01/11 11:33:21;;;;;;;1.90;1.80;;;8.70;99.90;;;;;;5031322;28;20205;-74
2023/01/11 11:35:55;;;;;;;2.97;2.20;;;8.60;99.90;;;;;;5030941;28;20283;-77
2023/01/11 11:38:29;;;;;;;2.30;1.80;;;8.50;99.90;;;;;;5003462;28;20211;-75
2023/01/11 11:41:04;;;;;;;2.67;2.23;;;8.50;99.90;;;;;;5003860;28;20339;-74
2023/01/11 11:43:31;;;;;;;1.73;1.47;;;8.40;99.90;;;;;;5005612;28;20647;-75
2023/01/11 11:46:01;;;;;;;1.73;1.63;;;8.40;99.90;;;;;;5004038;28;20269;-76
2023/01/11 11:48:30;;;;;;;3.13;2.33;;;8.40;99.90;;;;;;5008524;28;20204;-74
2023/01/11 11:51:03;;;;;;;2.90;2.10;;;8.30;99.90;;;;;;5008826;28;20299;-75
2023/01/11 11:53:33;;;;;;;2.50;1.77;;;8.30;99.90;;;;;;5006461;28;20199;-74
2023/01/11 11:56:06;;;;;;;3.73;2.50;;;8.30;99.90;;;;;;5005011;28;20666;-73
2023/01/11 11:58:32;;;;;;;3.33;2.13;;;8.30;99.90;;;;;;5006767;28;20203;-74
2023/01/11 12:00:58;;;;;;;2.50;1.73;;;8.30;99.90;;;;;;5006814;28;20530;-75
2023/01/11 12:03:31;;;;;;;3.77;2.77;;;8.30;99.90;;;;;;5006515;28;20532;-75
2023/01/11 12:06:02;;;;;;;2.80;1.83;;;8.30;99.90;;;;;;5018012;28;20286;-73
2023/01/11 12:08:31;;;;;;;6.93;2.23;;;8.30;99.90;;;;;;5026006;28;20261;-76
2023/01/11 12:11:00;;;;;;;2.33;2.13;;;8.30;99.90;;;;;;5014527;28;20249;-72
2023/01/11 12:13:26;;;;;;;1.90;1.60;;;8.30;99.90;;;;;;5012619;28;20203;-72
2023/01/11 12:15:58;;;;;;;2.03;1.87;;;8.30;99.90;;;;;;5012820;28;20520;-75
2023/01/11 12:18:37;;;;;;;2.97;2.10;;;8.40;99.90;;;;;;5016261;28;20202;-73
2023/01/11 12:21:17;;;;;;;2.80;1.90;;;8.40;99.90;;;;;;5016907;28;20292;-74
2023/01/11 12:23:43;;;;;;;2.10;2.00;;;8.40;99.90;;;;;;5026882;28;20206;-74
2023/01/11 12:26:26;;;;;;;2.50;2.30;;;8.50;99.90;;;;;;5013255;28;20200;-75
2023/01/11 12:29:20;;;;;;;3.70;2.83;;;8.40;99.90;;;;;;5006390;28;20207;-74
2023/01/11 12:32:10;;;;;;;2.40;2.10;;;8.50;99.90;;;;;;5009674;28;20470;-75
2023/01/11 12:35:04;;;;;;;2.07;1.97;;;8.50;99.90;;;;;;5013423;28;20237;-76
2023/01/11 12:37:55;;;;;;;4.43;2.73;;;8.60;99.90;;;;;;5016979;28;20295;-74
2023/01/11 12:40:42;;;;;;;3.27;2.60;;;8.60;99.90;;;;;;5009798;28;20303;-75
2023/01/11 12:43:17;;;;;;;2.13;2.03;;;8.60;99.90;;;;;;5010763;28;20219;-75
2023/01/11 12:45:57;;;;;;;1.97;1.77;;;8.60;99.90;;;;;;5020216;28;20195;-76
2023/01/11 12:48:58;;;;;;;2.20;2.00;;;8.50;99.90;;;;;;5008229;28;20563;-75
2023/01/11 12:52:10;;;;;;;2.50;2.30;;;8.50;99.90;;;;;;5013812;28;20204;-75
2023/01/11 12:54:54;;;;;;;1.70;1.60;;;8.50;99.90;;;;;;5008604;28;20206;-74
2023/01/11 12:58:03;;;;;;;2.70;2.23;;;8.40;99.90;;;;;;5009255;28;20315;-75
2023/01/11 13:00:47;;;;;;;2.67;2.17;;;8.40;99.90;;;;;;5027196;28;20211;-74
2023/01/11 13:03:39;;;;;;;2.27;1.80;;;8.40;99.90;;;;;;5038345;28;20203;-73
2023/01/11 13:06:06;;;;;;;2.13;1.80;;;8.40;99.90;;;;;;5027656;28;20206;-73
2023/01/11 13:08:41;;;;;;;2.33;2.13;;;8.40;99.90;;;;;;5034670;28;20213;-74
2023/01/11 13:11:44;;;;;;;3.83;2.60;;;8.30;99.90;;;;;;5035850;28;20205;-73
2023/01/11 13:14:35;;;;;;;3.20;2.10;;;8.30;99.90;;;;;;5020823;28;20234;-74
2023/01/11 13:17:26;;;;;;;2.00;1.90;;;8.30;99.90;;;;;;5038369;28;20294;-74
2023/01/11 13:20:15;;;;;;;2.03;1.60;;;8.30;99.90;;;;;;5038367;28;20218;-73
2023/01/11 13:22:48;;;;;;;1.80;1.63;;;8.20;99.90;;;;;;5038061;28;20198;-73
2023/01/11 13:25:25;;;;;;;1.73;1.53;;;8.20;99.90;;;;;;5034534;28;20222;-72
2023/01/11 13:27:54;;;;;;;1.77;1.67;;;8.20;99.90;;;;;;5014383;28;20219;-69
2023/01/11 13:30:23;;;;;;;1.93;1.77;;;8.20;99.90;;;;;;5020973;28;20659;-74
2023/01/11 13:32:58;;;;;;;1.37;1.27;;;8.20;99.90;;;;;;5009620;28;20622;-72
2023/01/11 13:35:34;;;;;;;1.43;1.33;;;8.10;99.90;;;;;;5026068;28;20203;-73
2023/01/11 13:38:14;;;;;;;1.80;1.70;;;8.10;99.90;;;;;;5026656;28;20469;-72
2023/01/11 13:40:53;;;;;;;4.23;2.07;;;8.20;99.90;;;;;;5027421;28;20187;-74
2023/01/11 13:43:21;;;;;;;1.73;1.63;;;8.20;99.90;;;;;;5024169;28;20203;-73
2023/01/11 13:45:54;;;;;;;1.50;1.33;;;8.10;99.90;;;;;;5023181;28;20932;-72
2023/01/11 13:48:43;;;;;;;1.30;1.20;;;8.10;99.90;;;;;;5009300;28;20231;-73
2023/01/11 13:51:33;;;;;;;2.63;1.90;;;8.10;99.90;;;;;;5011204;28;20200;-75
2023/01/11 13:54:34;;;;;;;1.73;1.63;;;8.10;99.90;;;;;;5004377;28;20274;-73
2023/01/11 13:57:05;;;;;;;3.23;1.83;;;8.10;99.90;;;;;;5008967;28;20198;-72
2023/01/11 13:59:44;;;;;;;2.30;1.93;;;8.10;99.90;;;;;;5011324;28;20199;-73